createdAt,value
2023-05-01T00:03:14.302Z,4.32
2023-05-01T00:08:16.057Z,6.00
2023-05-01T00:13:21.728Z,8.50
2023-05-01T00:18:23.218Z,8.70
2023-05-01T00:23:24.663Z,7.10
2023-05-01T00:28:26.128Z,7.43
2023-05-01T00:33:27.584Z,7.40
2023-05-01T00:38:29.101Z,7.80
2023-05-01T00:43:30.555Z,9.60
2023-05-01T00:48:32.030Z,8.57
2023-05-01T00:53:33.765Z,8.50
2023-05-01T00:58:35.236Z,8.45
2023-05-01T01:03:36.680Z,10.20
2023-05-01T01:08:43.595Z,10.80
2023-05-01T01:14:06.659Z,10.95
2023-05-01T01:19:42.979Z,13.07
2023-05-01T01:25:06.312Z,15.55
2023-05-01T01:30:34.976Z,17.02
2023-05-01T01:40:45.653Z,14.77
2023-05-01T01:50:49.060Z,15.23
2023-05-01T01:55:50.558Z,15.95
2023-05-01T02:00:52.584Z,17.60
2023-05-01T02:05:54.823Z,17.05
2023-05-01T02:11:01.736Z,18.70
2023-05-01T02:16:04.057Z,20.00
2023-05-01T02:21:05.548Z,19.20
2023-05-01T02:26:07.094Z,16.98
2023-05-01T02:31:09.587Z,14.98
2023-05-01T02:36:13.216Z,15.07
2023-05-01T02:41:15.036Z,14.95
2023-05-01T02:46:16.555Z,15.43
2023-05-01T02:51:18.358Z,12.90
2023-05-01T02:56:19.831Z,13.23
2023-05-01T03:01:21.378Z,13.32
2023-05-01T03:06:22.886Z,13.68
2023-05-01T03:11:24.495Z,13.52
2023-05-01T03:16:26.054Z,11.45
2023-05-01T03:21:27.681Z,10.77
2023-05-01T03:26:30.007Z,10.25
2023-05-01T03:31:31.548Z,10.48
2023-05-01T03:36:33.853Z,10.48
2023-05-01T03:41:35.520Z,12.00
2023-05-01T03:46:37.153Z,11.90
2023-05-01T03:51:38.819Z,11.48
2023-05-01T03:56:40.366Z,11.15
2023-05-01T04:01:42.079Z,10.88
2023-05-01T04:06:43.617Z,12.10
2023-05-01T04:11:46.664Z,12.68
2023-05-01T04:16:48.119Z,12.52
2023-05-01T04:21:49.579Z,13.52
2023-05-01T04:26:51.058Z,12.75
2023-05-01T04:31:52.600Z,12.93
2023-05-01T04:36:54.153Z,13.18
2023-05-01T04:41:55.673Z,11.98
2023-05-01T04:46:57.183Z,12.23
2023-05-01T04:51:58.688Z,13.73
2023-05-01T04:57:00.157Z,11.75
2023-05-01T05:02:01.715Z,11.57
2023-05-01T05:07:03.213Z,12.27
2023-05-01T05:12:05.229Z,11.15
2023-05-01T05:17:06.701Z,12.00
2023-05-01T05:22:08.314Z,11.80
2023-05-01T05:27:09.794Z,10.75
2023-05-01T05:32:11.512Z,10.55
2023-05-01T05:37:13.004Z,9.52
2023-05-01T05:42:14.484Z,9.23
2023-05-01T05:47:15.941Z,9.43
2023-05-01T05:52:17.550Z,8.00
2023-05-01T05:57:19.008Z,8.90
2023-05-01T06:02:20.558Z,9.13
2023-05-01T06:07:23.362Z,9.73
2023-05-01T06:12:24.892Z,8.80
2023-05-01T06:17:26.890Z,9.43
2023-05-01T06:22:28.414Z,8.85
2023-05-01T06:27:29.881Z,7.43
2023-05-01T06:32:31.365Z,9.18
2023-05-01T06:37:32.848Z,8.18
2023-05-01T06:42:34.297Z,8.35
2023-05-01T06:47:35.833Z,8.30
2023-05-01T06:52:37.374Z,7.57
2023-05-01T06:57:39.994Z,8.18
2023-05-01T07:07:50.510Z,7.05
2023-05-01T07:12:55.702Z,6.47
2023-05-01T07:17:58.295Z,7.95
2023-05-01T07:28:04.420Z,6.15
2023-05-01T07:33:05.969Z,6.80
2023-05-01T07:38:07.914Z,5.88
2023-05-01T07:43:11.959Z,6.07
2023-05-01T07:48:13.609Z,5.60
2023-05-01T07:53:15.086Z,5.07
2023-05-01T07:58:19.391Z,5.82
2023-05-01T08:03:20.926Z,5.28
2023-05-01T08:08:22.525Z,5.72
2023-05-01T08:13:23.982Z,5.63
2023-05-01T08:18:25.507Z,5.80
2023-05-01T08:23:26.956Z,5.97
2023-05-01T08:28:28.422Z,6.60
2023-05-01T08:33:29.942Z,5.22
2023-05-01T08:38:31.441Z,5.82
2023-05-01T08:43:33.071Z,5.53
2023-05-01T08:48:34.569Z,5.60
2023-05-01T08:53:36.090Z,5.60
2023-05-01T08:58:37.580Z,5.80
2023-05-01T09:03:39.072Z,5.60
2023-05-01T09:08:40.604Z,5.13
2023-05-01T09:13:42.066Z,5.72
2023-05-01T09:18:43.540Z,5.55
2023-05-01T09:23:45.010Z,5.38
2023-05-01T09:28:47.174Z,5.63
2023-05-01T09:33:55.387Z,5.60
2023-05-01T09:38:57.448Z,5.53
2023-05-01T09:43:59.029Z,6.50
2023-05-01T09:49:01.568Z,6.40
2023-05-01T09:54:04.805Z,6.10
2023-05-01T09:59:17.124Z,7.32
2023-05-01T10:04:18.672Z,6.40
2023-05-01T10:09:29.250Z,5.85
2023-05-01T10:14:33.754Z,6.22
2023-05-01T10:19:35.220Z,5.72
2023-05-01T10:24:36.755Z,6.70
2023-05-01T10:29:38.437Z,7.03
2023-05-01T10:34:42.573Z,7.32
2023-05-01T10:39:44.037Z,6.68
2023-05-01T10:44:47.901Z,6.70
2023-05-01T10:50:08.741Z,6.65
2023-05-01T10:55:32.733Z,6.75
2023-05-01T11:00:34.610Z,7.53
2023-05-01T11:06:02.254Z,7.70
2023-05-01T11:11:26.883Z,7.05
2023-05-01T11:16:43.742Z,6.22
2023-05-01T11:21:45.457Z,7.57
2023-05-01T11:26:47.281Z,8.07
2023-05-01T11:31:48.960Z,7.05
2023-05-01T11:36:51.108Z,6.15
2023-05-01T11:42:05.840Z,6.93
2023-05-01T11:47:09.190Z,5.82
2023-05-01T11:52:10.681Z,6.93
2023-05-01T11:57:12.327Z,5.88
2023-05-01T12:02:20.340Z,6.47
2023-05-01T12:07:22.739Z,7.18
2023-05-01T12:12:24.358Z,6.60
2023-05-01T12:17:26.055Z,6.30
2023-05-01T12:22:29.470Z,6.63
2023-05-01T12:27:32.896Z,6.57
2023-05-01T12:32:34.568Z,6.88
2023-05-01T12:37:36.194Z,6.68
2023-05-01T12:42:37.700Z,6.07
2023-05-01T12:47:39.292Z,5.95
2023-05-01T12:52:40.827Z,7.22
2023-05-01T12:57:53.023Z,8.00
2023-05-01T13:02:54.546Z,7.82
2023-05-01T13:07:56.037Z,7.55
2023-05-01T13:12:57.489Z,7.30
2023-05-01T13:18:05.374Z,6.97
2023-05-01T13:23:10.832Z,7.13
2023-05-01T13:28:17.768Z,7.15
2023-05-01T13:33:19.215Z,6.75
2023-05-01T13:38:23.375Z,7.18
2023-05-01T13:43:24.843Z,8.23
2023-05-01T13:48:26.353Z,7.18
2023-05-01T13:53:28.377Z,8.88
2023-05-01T14:03:41.496Z,5.05
2023-05-01T14:08:43.426Z,5.28
2023-05-01T14:13:45.901Z,5.85
2023-05-01T14:18:47.874Z,7.15
2023-05-01T14:23:49.554Z,9.20
2023-05-01T14:28:51.057Z,8.43
2023-05-01T14:33:54.767Z,7.63
2023-05-01T14:38:57.036Z,7.65
2023-05-01T14:43:58.511Z,7.85
2023-05-01T14:49:00.705Z,6.30
2023-05-01T14:54:02.221Z,6.15
2023-05-01T14:59:04.137Z,5.95
2023-05-01T15:04:10.936Z,6.90
2023-05-01T15:09:12.734Z,6.13
2023-05-01T15:14:14.192Z,7.03
2023-05-01T15:19:15.697Z,6.70
2023-05-01T15:24:19.471Z,6.78
2023-05-01T15:29:20.938Z,7.20
2023-05-01T15:34:22.411Z,7.85
2023-05-01T15:39:23.888Z,6.85
2023-05-01T15:44:26.800Z,7.75
2023-05-01T15:49:28.311Z,5.93
2023-05-01T15:54:29.774Z,6.18
2023-05-01T15:59:31.252Z,5.53
2023-05-01T16:04:32.936Z,5.18
2023-05-01T16:09:34.432Z,6.05
2023-05-01T16:14:36.332Z,5.55
2023-05-01T16:19:37.821Z,5.47
2023-05-01T16:24:39.483Z,6.47
2023-05-01T16:29:40.931Z,6.20
2023-05-01T16:34:42.477Z,5.95
2023-05-01T16:39:43.947Z,6.50
2023-05-01T16:44:45.409Z,6.80
2023-05-01T16:49:46.904Z,6.93
2023-05-01T16:54:48.393Z,7.38
2023-05-01T16:59:49.865Z,7.20
2023-05-01T17:04:51.758Z,8.13
2023-05-01T17:09:53.387Z,7.10
2023-05-01T17:14:54.934Z,8.05
2023-05-01T17:19:57.626Z,6.93
2023-05-01T17:25:02.205Z,8.65
2023-05-01T17:30:04.706Z,9.15
2023-05-01T17:40:08.882Z,9.27
2023-05-01T17:45:10.988Z,9.18
2023-05-01T17:50:13.309Z,8.35
2023-05-01T17:55:17.166Z,8.65
2023-05-01T18:00:19.753Z,10.35
2023-05-01T18:05:22.473Z,10.77
2023-05-01T18:10:24.163Z,10.13
2023-05-01T18:15:28.089Z,9.98
2023-05-01T18:20:29.782Z,10.60
2023-05-01T18:25:32.511Z,9.85
2023-05-01T18:30:35.495Z,10.63
2023-05-01T18:35:41.838Z,10.38
2023-05-01T18:40:43.614Z,10.80
2023-05-01T18:45:45.103Z,10.85
2023-05-01T18:50:54.259Z,10.45
2023-05-01T18:56:02.680Z,9.98
2023-05-01T19:01:04.125Z,11.32
2023-05-01T19:06:05.733Z,10.23
2023-05-01T19:11:07.264Z,11.85
2023-05-01T19:16:08.766Z,10.93
2023-05-01T19:21:11.018Z,10.98
2023-05-01T19:26:13.666Z,10.68
2023-05-01T19:36:17.671Z,10.95
2023-05-01T19:41:19.126Z,10.13
2023-05-01T19:46:20.681Z,10.90
2023-05-01T19:51:22.157Z,11.60
2023-05-01T19:56:24.845Z,11.70
2023-05-01T20:06:27.827Z,11.50
2023-05-01T20:11:29.413Z,11.52
2023-05-01T20:16:30.946Z,13.95
2023-05-01T20:21:32.734Z,13.50
2023-05-01T20:26:34.207Z,12.45
2023-05-01T20:31:35.679Z,12.70
2023-05-01T20:36:37.575Z,13.40
2023-05-01T20:41:39.031Z,13.35
2023-05-01T20:46:40.494Z,13.55
2023-05-01T20:51:41.932Z,13.45
2023-05-01T20:56:43.390Z,11.40
2023-05-01T21:01:44.859Z,10.60
2023-05-01T21:06:46.752Z,12.98
2023-05-01T21:11:48.243Z,11.52
2023-05-01T21:16:49.744Z,13.20
2023-05-01T21:21:54.780Z,12.02
2023-05-01T21:26:56.615Z,11.27
2023-05-01T21:32:03.723Z,13.15
2023-05-01T21:37:05.259Z,11.23
2023-05-01T21:42:06.710Z,11.88
2023-05-01T21:47:08.852Z,7.57
2023-05-01T21:52:11.322Z,8.88
2023-05-01T21:57:12.823Z,8.70
2023-05-01T22:02:14.305Z,6.75
2023-05-01T22:07:16.518Z,5.47
2023-05-01T22:12:17.982Z,3.72
2023-05-01T22:17:24.414Z,4.00
2023-05-01T22:22:25.960Z,5.40
2023-05-01T22:27:27.428Z,5.20
2023-05-01T22:32:28.989Z,4.60
2023-05-01T22:37:30.492Z,3.88
2023-05-01T22:42:31.941Z,5.03
2023-05-01T22:47:33.474Z,5.63
2023-05-01T22:52:34.949Z,5.20
2023-05-01T22:57:36.409Z,3.67
2023-05-01T23:02:37.930Z,3.47
2023-05-01T23:07:39.723Z,2.75
2023-05-01T23:12:44.377Z,3.25
2023-05-01T23:17:46.080Z,3.35
2023-05-01T23:22:47.590Z,3.55
2023-05-01T23:27:51.011Z,3.00
2023-05-01T23:32:52.561Z,3.60
2023-05-01T23:37:54.246Z,2.85
2023-05-01T23:42:55.698Z,2.90
2023-05-01T23:47:57.799Z,2.55
2023-05-01T23:52:59.567Z,1.65
2023-05-01T23:58:01.420Z,3.25
